Time;durP1;ratioP1;P1;durP2;ratioP2;P2;SDS_P1;SDS_P2;PMS_P1;PMS_P2;Temp;Humidity;BMP_temperature;BMP_pressure;BME280_temperature;BME280_humidity;BME280_pressure;Samples;Min_cycle;Max_cycle;Signal;HPM_P1;HPM_P2
2024/03/06 00:01:02;;;;;;;23.40;20.35;;;3.90;1.00;;;;;;5096262;28;20251;-77
2024/03/06 00:03:29;;;;;;;26.17;21.23;;;4.00;1.00;;;;;;5088243;27;20233;-76
2024/03/06 00:05:57;;;;;;;25.88;20.73;;;3.90;1.00;;;;;;5081726;27;20231;-74
2024/03/06 00:08:26;;;;;;;26.27;20.58;;;3.90;1.00;;;;;;5106609;27;20322;-76
2024/03/06 00:10:53;;;;;;;24.60;20.60;;;3.80;1.00;;;;;;5091382;27;20730;-75
2024/03/06 00:13:21;;;;;;;24.55;20.95;;;3.80;1.00;;;;;;5100012;27;20699;-74
2024/03/06 00:15:48;;;;;;;27.42;22.65;;;3.80;1.00;;;;;;5092680;27;20236;-74
2024/03/06 00:18:16;;;;;;;24.35;21.58;;;3.80;1.00;;;;;;5100383;27;20239;-75
2024/03/06 00:20:44;;;;;;;26.13;21.20;;;3.70;1.00;;;;;;5091977;28;20328;-76
2024/03/06 00:23:12;;;;;;;21.98;19.63;;;3.70;1.00;;;;;;5092739;28;20743;-76
2024/03/06 00:25:41;;;;;;;25.23;21.58;;;3.60;1.00;;;;;;5092129;27;20582;-76
2024/03/06 00:28:08;;;;;;;25.83;20.80;;;3.60;1.00;;;;;;5090337;28;20251;-76
2024/03/06 00:30:35;;;;;;;25.50;21.48;;;3.50;1.00;;;;;;5092938;28;20656;-75
2024/03/06 00:33:01;;;;;;;24.17;20.42;;;3.50;1.00;;;;;;5096370;28;20235;-76
2024/03/06 00:35:29;;;;;;;22.70;20.27;;;3.40;1.00;;;;;;5109010;27;20247;-78
2024/03/06 00:37:56;;;;;;;21.73;19.42;;;3.40;1.00;;;;;;5116826;27;20753;-76
2024/03/06 00:40:23;;;;;;;24.08;20.77;;;3.40;1.00;;;;;;5114237;27;20334;-74
2024/03/06 00:42:54;;;;;;;24.38;20.85;;;3.40;1.00;;;;;;5110764;27;20240;-76
2024/03/06 00:45:21;;;;;;;21.30;18.83;;;3.30;1.00;;;;;;5102140;27;20266;-77
2024/03/06 00:47:48;;;;;;;23.85;20.05;;;3.30;1.00;;;;;;5095887;27;20835;-77
2024/03/06 00:50:16;;;;;;;24.92;20.52;;;3.30;1.00;;;;;;5103679;27;20234;-76
2024/03/06 00:52:44;;;;;;;21.85;19.50;;;3.40;1.00;;;;;;5114064;27;20261;-75
2024/03/06 00:55:12;;;;;;;24.40;20.10;;;3.40;1.00;;;;;;5113221;27;20291;-77
2024/03/06 00:57:39;;;;;;;24.10;19.83;;;3.40;1.00;;;;;;5113729;27;20424;-74
2024/03/06 01:00:10;;;;;;;25.80;20.45;;;3.40;1.00;;;;;;5114633;27;20219;-76
2024/03/06 01:02:37;;;;;;;26.13;21.23;;;3.40;1.00;;;;;;5114838;27;20760;-75
2024/03/06 01:05:05;;;;;;;22.48;20.20;;;3.40;1.00;;;;;;5113803;27;20235;-76
2024/03/06 01:07:32;;;;;;;27.05;19.10;;;3.40;1.00;;;;;;5112845;27;20243;-76
2024/03/06 01:09:59;;;;;;;24.50;19.75;;;3.30;1.00;;;;;;5112912;27;20321;-76
2024/03/06 01:12:27;;;;;;;21.20;18.80;;;3.30;1.00;;;;;;5094895;27;20235;-77
2024/03/06 01:14:54;;;;;;;23.50;19.33;;;3.20;1.00;;;;;;5115150;27;20235;-77
2024/03/06 01:17:22;;;;;;;21.90;18.80;;;3.20;1.00;;;;;;5114414;27;20484;-76
2024/03/06 01:19:48;;;;;;;22.20;19.83;;;3.20;1.00;;;;;;5115107;27;20707;-78
2024/03/06 01:22:15;;;;;;;24.07;20.50;;;3.10;1.00;;;;;;5112783;27;20239;-75
2024/03/06 01:24:43;;;;;;;22.05;18.83;;;3.10;1.00;;;;;;5113229;27;20468;-76
2024/03/06 01:27:10;;;;;;;21.60;19.30;;;3.10;1.00;;;;;;5112011;27;21121;-77
2024/03/06 01:29:37;;;;;;;24.80;21.00;;;3.00;1.00;;;;;;5110397;27;20324;-78
2024/03/06 01:32:04;;;;;;;21.60;18.50;;;3.00;1.00;;;;;;5110783;27;20240;-76
2024/03/06 01:34:32;;;;;;;22.45;19.98;;;3.00;1.00;;;;;;5096923;27;20294;-74
2024/03/06 01:36:59;;;;;;;25.75;19.88;;;3.00;1.00;;;;;;5090185;28;20240;-77
2024/03/06 01:39:26;;;;;;;25.10;20.13;;;3.00;1.00;;;;;;5086723;28;20264;-74
2024/03/06 01:41:53;;;;;;;27.40;20.83;;;3.00;1.00;;;;;;5090513;28;21510;-77
2024/03/06 01:44:21;;;;;;;22.30;19.73;;;3.00;1.00;;;;;;5099364;27;20239;-76
2024/03/06 01:46:48;;;;;;;25.02;19.90;;;3.00;1.00;;;;;;5088529;28;20288;-74
2024/03/06 01:49:16;;;;;;;22.13;19.25;;;2.90;1.00;;;;;;5091099;28;20228;-76
2024/03/06 01:51:50;;;;;;;25.13;20.95;;;2.90;1.00;;;;;;5087490;28;20289;-74
2024/03/06 01:54:17;;;;;;;21.42;18.80;;;2.90;1.00;;;;;;5090518;28;20316;-77
2024/03/06 01:56:47;;;;;;;23.10;18.50;;;2.90;1.00;;;;;;5096655;27;20232;-74
2024/03/06 01:59:15;;;;;;;22.65;18.52;;;3.00;1.00;;;;;;5085937;28;20240;-75
2024/03/06 02:01:43;;;;;;;21.23;18.10;;;3.00;1.00;;;;;;5088973;28;20288;-75
2024/03/06 02:04:12;;;;;;;21.70;17.38;;;3.00;1.00;;;;;;5094113;27;20930;-77
2024/03/06 02:06:40;;;;;;;22.48;19.00;;;3.00;1.00;;;;;;5088151;28;20239;-76
2024/03/06 02:09:09;;;;;;;28.77;20.83;;;3.10;1.00;;;;;;5087867;28;20239;-76
2024/03/06 02:11:37;;;;;;;29.13;20.38;;;3.00;1.00;;;;;;5090820;28;20232;-75
2024/03/06 02:14:06;;;;;;;26.95;19.70;;;3.00;1.00;;;;;;5088283;28;20926;-76
2024/03/06 02:16:33;;;;;;;23.67;19.92;;;3.00;1.00;;;;;;5084418;28;20229;-75
2024/03/06 02:19:03;;;;;;;22.20;18.35;;;3.00;1.00;;;;;;5088026;28;20310;-77
2024/03/06 02:21:31;;;;;;;23.73;19.63;;;3.00;1.00;;;;;;5074486;28;21115;-75
2024/03/06 02:23:58;;;;;;;22.98;18.73;;;3.00;1.00;;;;;;5086905;28;20792;-76
2024/03/06 02:26:25;;;;;;;19.88;17.77;;;3.00;1.00;;;;;;5086056;28;20243;-76
2024/03/06 02:28:54;;;;;;;22.88;19.02;;;3.00;1.00;;;;;;5086686;28;20315;-77
2024/03/06 02:31:22;;;;;;;19.88;17.85;;;3.00;1.00;;;;;;5085367;28;20242;-76
2024/03/06 02:33:50;;;;;;;22.55;18.98;;;3.00;1.00;;;;;;5085372;28;20321;-75
2024/03/06 02:36:18;;;;;;;25.60;20.38;;;3.00;1.00;;;;;;5084172;28;20240;-75
2024/03/06 02:38:47;;;;;;;20.80;17.55;;;3.00;1.00;;;;;;5086367;28;20244;-74
2024/03/06 02:41:15;;;;;;;23.75;18.48;;;3.00;1.00;;;;;;5086633;28;20239;-77
2024/03/06 02:43:42;;;;;;;22.88;18.88;;;3.00;1.00;;;;;;5085929;28;20244;-75
2024/03/06 02:46:09;;;;;;;22.67;17.80;;;3.00;1.00;;;;;;5096656;27;20334;-75
2024/03/06 02:48:36;;;;;;;20.52;18.25;;;3.00;1.00;;;;;;5106441;27;20324;-75
2024/03/06 02:51:03;;;;;;;20.65;17.48;;;3.00;1.00;;;;;;5085823;28;20244;-75
2024/03/06 02:53:31;;;;;;;22.13;18.25;;;3.00;1.00;;;;;;5087717;28;20236;-75
2024/03/06 02:55:59;;;;;;;22.98;19.15;;;3.00;1.00;;;;;;5085091;28;20243;-75
2024/03/06 02:58:28;;;;;;;23.10;18.48;;;3.00;1.00;;;;;;5087045;28;20236;-77
2024/03/06 03:00:55;;;;;;;19.95;17.45;;;2.90;1.00;;;;;;5090626;28;21588;-76
2024/03/06 03:03:24;;;;;;;21.63;19.30;;;3.00;1.00;;;;;;5086010;27;20240;-75
2024/03/06 03:05:51;;;;;;;21.73;18.05;;;3.00;1.00;;;;;;5089649;28;20325;-77
2024/03/06 03:08:19;;;;;;;20.80;17.52;;;3.00;1.00;;;;;;5085410;28;20290;-75
2024/03/06 03:10:46;;;;;;;25.30;18.83;;;3.00;1.00;;;;;;5109154;27;20718;-75
2024/03/06 03:13:14;;;;;;;21.48;18.40;;;2.90;1.00;;;;;;5100542;27;20236;-76
2024/03/06 03:15:41;;;;;;;23.92;19.40;;;2.90;1.00;;;;;;5088210;28;20267;-75
2024/03/06 03:18:08;;;;;;;25.80;18.83;;;2.80;1.00;;;;;;5087514;28;20323;-76
2024/03/06 03:20:36;;;;;;;27.23;20.13;;;2.80;1.00;;;;;;5087006;28;20328;-75
2024/03/06 03:23:03;;;;;;;27.45;21.30;;;2.80;1.00;;;;;;5088858;28;20326;-76
2024/03/06 03:25:30;;;;;;;23.70;20.23;;;2.80;1.00;;;;;;5086706;28;20731;-75
2024/03/06 03:27:57;;;;;;;24.23;20.05;;;2.70;1.00;;;;;;5089106;28;20240;-76
2024/03/06 03:30:25;;;;;;;23.85;19.13;;;2.70;1.00;;;;;;5095556;27;20239;-75
2024/03/06 03:32:52;;;;;;;24.80;19.98;;;2.60;1.00;;;;;;5087880;28;20248;-75
2024/03/06 03:35:20;;;;;;;24.30;21.70;;;2.60;1.00;;;;;;5088324;27;21129;-76
2024/03/06 03:37:47;;;;;;;23.77;19.33;;;2.60;1.00;;;;;;5088722;28;21075;-77
2024/03/06 03:40:15;;;;;;;25.92;20.00;;;2.60;1.00;;;;;;5090857;28;20235;-75
2024/03/06 03:42:42;;;;;;;24.60;21.15;;;2.60;1.00;;;;;;5092911;28;20238;-75
2024/03/06 03:45:09;;;;;;;28.95;20.85;;;2.50;1.00;;;;;;5096358;27;20326;-76
2024/03/06 03:47:38;;;;;;;24.80;19.73;;;2.50;1.00;;;;;;5090791;28;20240;-74
2024/03/06 03:50:08;;;;;;;27.13;20.30;;;2.40;1.00;;;;;;5088226;28;20317;-76
2024/03/06 03:52:35;;;;;;;26.25;20.40;;;2.50;1.00;;;;;;5079014;28;20700;-74
2024/03/06 03:55:03;;;;;;;23.67;19.90;;;2.50;1.00;;;;;;5089008;28;20252;-76
2024/03/06 03:57:30;;;;;;;27.05;20.40;;;2.40;1.00;;;;;;5101165;27;20242;-75
2024/03/06 03:59:57;;;;;;;23.00;18.63;;;2.30;1.00;;;;;;5097276;27;20248;-77
2024/03/06 04:02:25;;;;;;;21.40;18.48;;;2.30;1.00;;;;;;5091131;28;21097;-77
2024/03/06 04:04:55;;;;;;;29.83;20.15;;;2.40;1.00;;;;;;5091230;28;20329;-75
2024/03/06 04:07:22;;;;;;;28.08;20.73;;;2.40;1.00;;;;;;5091378;28;20236;-75
2024/03/06 04:09:50;;;;;;;24.95;20.63;;;2.40;1.00;;;;;;5091689;28;20236;-75
2024/03/06 04:12:17;;;;;;;25.45;19.25;;;2.30;1.00;;;;;;5078555;28;20311;-74
2024/03/06 04:14:44;;;;;;;26.98;21.13;;;2.30;1.00;;;;;;5099890;27;20297;-75
2024/03/06 04:17:11;;;;;;;25.13;21.60;;;2.30;1.00;;;;;;5099249;27;20239;-77
2024/03/06 04:19:38;;;;;;;29.27;20.20;;;2.30;1.00;;;;;;5105983;27;20346;-76
2024/03/06 04:22:06;;;;;;;23.95;20.40;;;2.20;1.00;;;;;;5112244;27;20714;-76
2024/03/06 04:24:33;;;;;;;31.65;21.75;;;2.10;1.00;;;;;;5113740;27;20285;-74
2024/03/06 04:27:00;;;;;;;30.27;21.77;;;2.10;1.00;;;;;;5113563;27;20263;-75
2024/03/06 04:29:27;;;;;;;28.60;21.20;;;2.10;1.00;;;;;;5115288;27;20790;-75
2024/03/06 04:31:54;;;;;;;35.50;22.42;;;2.20;1.00;;;;;;5114035;27;20726;-75
2024/03/06 04:34:23;;;;;;;26.88;20.63;;;2.10;1.00;;;;;;5099307;27;20239;-75
2024/03/06 04:36:50;;;;;;;25.50;21.35;;;2.00;1.00;;;;;;5113862;27;20313;-75
2024/03/06 04:39:18;;;;;;;28.83;21.05;;;2.10;1.00;;;;;;5104951;27;20286;-76
2024/03/06 04:41:45;;;;;;;26.70;19.85;;;2.00;1.00;;;;;;5095113;27;20235;-76
2024/03/06 04:44:12;;;;;;;26.58;21.63;;;2.00;1.00;;;;;;5093612;27;20374;-76
2024/03/06 04:46:39;;;;;;;27.00;20.17;;;2.10;1.00;;;;;;5089134;27;20762;-75
2024/03/06 04:49:06;;;;;;;28.02;21.30;;;2.10;1.00;;;;;;5091450;28;20727;-77
2024/03/06 04:51:33;;;;;;;24.83;20.42;;;2.10;1.00;;;;;;5092892;28;20313;-75
2024/03/06 04:53:59;;;;;;;28.65;21.60;;;2.10;1.00;;;;;;5092656;28;20260;-75
2024/03/06 04:56:28;;;;;;;29.38;20.27;;;2.10;1.00;;;;;;5090836;28;20256;-76
2024/03/06 04:58:55;;;;;;;27.02;20.48;;;2.00;1.00;;;;;;5092115;28;20332;-78
2024/03/06 05:01:22;;;;;;;25.83;20.90;;;2.00;1.00;;;;;;5086968;28;20240;-76
2024/03/06 05:03:49;;;;;;;24.17;19.80;;;2.10;1.00;;;;;;5083715;28;20323;-76
2024/03/06 05:06:16;;;;;;;30.63;22.02;;;2.10;1.00;;;;;;5099232;27;20350;-77
2024/03/06 05:08:43;;;;;;;29.02;21.23;;;2.10;1.00;;;;;;5089444;28;20240;-76
2024/03/06 05:11:10;;;;;;;29.10;22.13;;;2.10;1.00;;;;;;5095745;28;20322;-76
2024/03/06 05:13:40;;;;;;;27.10;21.38;;;2.10;1.00;;;;;;5090313;28;20247;-77
2024/03/06 05:16:09;;;;;;;30.00;21.83;;;2.20;1.00;;;;;;5091162;28;20244;-77
2024/03/06 05:18:36;;;;;;;31.45;23.85;;;2.20;1.00;;;;;;5080621;28;20236;-76
2024/03/06 05:21:03;;;;;;;28.17;21.48;;;2.20;1.00;;;;;;5089895;28;20294;-77
2024/03/06 05:23:30;;;;;;;29.95;23.10;;;2.20;1.00;;;;;;5091525;28;20672;-78
2024/03/06 05:25:57;;;;;;;27.65;22.17;;;2.20;1.00;;;;;;5086494;28;20322;-76
2024/03/06 05:28:24;;;;;;;28.08;21.67;;;2.30;1.00;;;;;;5088340;28;20243;-76
2024/03/06 05:30:52;;;;;;;26.55;22.23;;;2.20;1.00;;;;;;5094078;27;20283;-77
2024/03/06 05:33:19;;;;;;;30.35;21.23;;;2.20;1.00;;;;;;5088983;28;21463;-73
2024/03/06 05:35:46;;;;;;;24.65;20.10;;;2.20;1.00;;;;;;5090093;28;20768;-75
2024/03/06 05:38:13;;;;;;;27.90;21.13;;;2.10;1.00;;;;;;5091444;28;21096;-80
2024/03/06 05:40:41;;;;;;;27.25;20.23;;;2.20;1.00;;;;;;5093374;28;20247;-76
2024/03/06 05:43:08;;;;;;;28.55;21.13;;;2.20;1.00;;;;;;5089678;28;20247;-77
2024/03/06 05:45:35;;;;;;;25.15;21.33;;;2.20;1.00;;;;;;5088952;28;22453;-76
2024/03/06 05:48:04;;;;;;;31.10;22.65;;;2.30;1.00;;;;;;5091079;28;20264;-78
2024/03/06 05:50:31;;;;;;;24.88;21.23;;;2.30;1.00;;;;;;5091093;28;20774;-76
2024/03/06 05:52:59;;;;;;;28.42;21.25;;;2.30;1.00;;;;;;5088997;28;20239;-76
2024/03/06 05:55:26;;;;;;;32.15;23.75;;;2.40;1.00;;;;;;5086997;27;20308;-75
2024/03/06 05:57:54;;;;;;;39.60;25.02;;;2.40;1.00;;;;;;5090939;28;21134;-76
2024/03/06 06:00:21;;;;;;;34.10;24.33;;;2.50;1.00;;;;;;5091796;27;20334;-73
2024/03/06 06:02:48;;;;;;;34.65;25.00;;;2.50;1.00;;;;;;5084849;28;20270;-71
2024/03/06 06:05:19;;;;;;;36.42;24.63;;;2.60;1.00;;;;;;5086653;28;20236;-72
2024/03/06 06:07:46;;;;;;;33.30;27.55;;;2.60;1.00;;;;;;5074499;27;20337;-73
2024/03/06 06:10:14;;;;;;;41.05;27.77;;;2.60;1.00;;;;;;5101053;27;20753;-74
2024/03/06 06:12:41;;;;;;;46.47;27.80;;;2.60;1.00;;;;;;5087463;28;20687;-76
2024/03/06 06:15:09;;;;;;;39.70;29.83;;;2.70;1.00;;;;;;5088147;28;20239;-73
2024/03/06 06:17:37;;;;;;;30.33;24.85;;;2.80;1.00;;;;;;5083625;28;20236;-75
2024/03/06 06:20:09;;;;;;;31.85;25.10;;;2.90;1.00;;;;;;5086878;28;20366;-73
2024/03/06 06:22:38;;;;;;;36.63;26.45;;;2.90;1.00;;;;;;5099321;27;20245;-72
2024/03/06 06:25:07;;;;;;;30.33;24.52;;;3.00;1.00;;;;;;5085581;27;20229;-77
2024/03/06 06:27:36;;;;;;;33.88;25.90;;;3.10;1.00;;;;;;5088276;27;20782;-74
2024/03/06 06:30:05;;;;;;;35.17;25.50;;;3.10;1.00;;;;;;5086981;27;20241;-73
2024/03/06 06:32:32;;;;;;;34.58;24.48;;;3.20;1.00;;;;;;5083259;27;20294;-80
2024/03/06 06:35:00;;;;;;;34.47;26.30;;;3.20;1.00;;;;;;5093760;27;20244;-74
2024/03/06 06:37:26;;;;;;;32.53;24.63;;;3.30;1.00;;;;;;5086710;28;20336;-76
2024/03/06 06:39:55;;;;;;;33.38;24.00;;;3.40;1.00;;;;;;5083022;28;20293;-76
2024/03/06 06:42:22;;;;;;;31.75;24.10;;;3.40;1.00;;;;;;5085512;28;20313;-73
2024/03/06 06:44:49;;;;;;;33.10;24.73;;;3.40;1.00;;;;;;5093027;27;20781;-74
2024/03/06 06:47:24;;;;;;;33.22;24.88;;;3.50;1.00;;;;;;5105575;27;20246;-75
2024/03/06 06:49:52;;;;;;;31.90;24.27;;;3.60;1.00;;;;;;5080302;28;20295;-73
2024/03/06 06:52:19;;;;;;;29.25;22.55;;;3.70;1.00;;;;;;5086201;28;20236;-75
2024/03/06 06:54:48;;;;;;;32.80;23.98;;;3.70;1.00;;;;;;5088235;28;20240;-74
2024/03/06 06:57:16;;;;;;;33.15;23.40;;;3.80;1.00;;;;;;5087464;28;20290;-74
2024/03/06 06:59:44;;;;;;;31.23;24.13;;;3.80;1.00;;;;;;5078997;28;20330;-72
2024/03/06 07:02:11;;;;;;;34.13;26.25;;;3.90;1.00;;;;;;5086427;28;21137;-74
2024/03/06 07:04:38;;;;;;;33.80;24.05;;;4.00;1.00;;;;;;5093387;27;20321;-74
2024/03/06 07:07:07;;;;;;;32.55;25.00;;;4.10;1.00;;;;;;5107809;27;20325;-74
2024/03/06 07:09:37;;;;;;;33.90;25.35;;;4.20;1.00;;;;;;5107101;27;20254;-74
2024/03/06 07:12:07;;;;;;;29.23;21.55;;;4.20;1.00;;;;;;5102611;27;20231;-76
2024/03/06 07:14:35;;;;;;;32.58;22.17;;;4.30;1.00;;;;;;5106250;27;20265;-75
2024/03/06 07:17:03;;;;;;;28.95;22.85;;;4.40;1.00;;;;;;5109376;27;20271;-74
2024/03/06 07:19:31;;;;;;;35.90;29.23;;;4.40;1.00;;;;;;5108937;27;20231;-76
2024/03/06 07:22:00;;;;;;;25.88;21.23;;;4.50;1.00;;;;;;5107323;27;20335;-74
2024/03/06 07:24:27;;;;;;;24.60;20.58;;;4.60;1.00;;;;;;5112757;27;20263;-75
2024/03/06 07:26:54;;;;;;;26.17;21.00;;;4.70;1.00;;;;;;5108587;27;20235;-74
2024/03/06 07:29:21;;;;;;;31.10;21.95;;;4.80;1.00;;;;;;5086427;27;21023;-74
2024/03/06 07:31:49;;;;;;;26.02;20.15;;;4.80;1.00;;;;;;5084834;28;20240;-74
2024/03/06 07:34:17;;;;;;;20.58;17.20;;;4.90;1.00;;;;;;5099061;27;20236;-74
2024/03/06 07:36:46;;;;;;;25.25;18.75;;;4.90;1.00;;;;;;5070210;28;20259;-75
2024/03/06 07:39:14;;;;;;;23.88;19.33;;;5.00;1.00;;;;;;5091773;28;20276;-74
2024/03/06 07:41:41;;;;;;;26.23;19.15;;;5.10;1.00;;;;;;5087459;28;20243;-74
2024/03/06 07:44:09;;;;;;;20.20;18.00;;;5.10;1.00;;;;;;5091069;28;20265;-74
2024/03/06 07:46:36;;;;;;;21.27;16.98;;;5.20;1.00;;;;;;5090409;27;20294;-72
2024/03/06 07:49:06;;;;;;;26.38;19.30;;;5.20;1.00;;;;;;5090942;28;20250;-73
2024/03/06 07:51:35;;;;;;;25.55;17.50;;;5.30;1.00;;;;;;5098836;27;20905;-76
2024/03/06 07:54:03;;;;;;;44.42;20.02;;;5.30;1.00;;;;;;5101673;27;20234;-75
2024/03/06 07:56:31;;;;;;;20.40;17.80;;;5.40;1.00;;;;;;5088939;27;20245;-75
2024/03/06 07:58:59;;;;;;;20.40;17.75;;;5.40;1.00;;;;;;5108870;27;20345;-75
2024/03/06 08:01:28;;;;;;;21.83;17.58;;;5.50;1.00;;;;;;5104175;27;20308;-74
2024/03/06 08:03:55;;;;;;;23.05;17.60;;;5.60;1.00;;;;;;5110652;27;20275;-75
2024/03/06 08:06:25;;;;;;;20.00;16.63;;;5.80;1.00;;;;;;5089944;27;20339;-78
2024/03/06 08:08:52;;;;;;;20.45;18.33;;;5.90;1.00;;;;;;5101533;27;20727;-75
2024/03/06 08:11:21;;;;;;;22.25;16.30;;;6.00;1.00;;;;;;5088701;27;21168;-75
2024/03/06 08:13:49;;;;;;;27.67;19.17;;;6.20;1.00;;;;;;5088096;28;20252;-76
2024/03/06 08:16:18;;;;;;;20.48;17.00;;;6.30;1.00;;;;;;5086572;28;20399;-77
2024/03/06 08:18:46;;;;;;;18.30;16.25;;;6.50;1.00;;;;;;5088308;28;20759;-75
2024/03/06 08:21:13;;;;;;;21.37;17.27;;;6.60;1.00;;;;;;5084331;28;20236;-74
2024/03/06 08:23:43;;;;;;;19.53;15.73;;;6.80;1.00;;;;;;5090265;27;20464;-76
2024/03/06 08:26:11;;;;;;;22.10;16.08;;;6.90;1.00;;;;;;5091867;28;20488;-75
2024/03/06 08:28:38;;;;;;;19.90;17.60;;;7.00;1.00;;;;;;5086728;28;20254;-76
2024/03/06 08:31:05;;;;;;;23.05;15.70;;;7.00;1.00;;;;;;5092831;27;20512;-76
2024/03/06 08:33:32;;;;;;;25.50;15.43;;;7.10;1.00;;;;;;5088332;27;20253;-74
2024/03/06 08:35:59;;;;;;;19.90;15.10;;;7.30;1.00;;;;;;5091165;28;20462;-76
2024/03/06 08:38:27;;;;;;;20.83;16.70;;;7.50;1.00;;;;;;5088094;27;20453;-76
2024/03/06 08:40:56;;;;;;;19.83;17.73;;;7.50;1.00;;;;;;5088490;28;20238;-73
2024/03/06 08:43:23;;;;;;;18.37;15.37;;;7.60;1.00;;;;;;5086347;28;20470;-76
2024/03/06 08:45:50;;;;;;;17.97;14.70;;;7.70;1.00;;;;;;5086595;28;20478;-77
2024/03/06 08:48:18;;;;;;;21.30;16.40;;;7.70;1.00;;;;;;5091428;28;21129;-74
2024/03/06 08:50:45;;;;;;;14.73;13.33;;;7.90;1.00;;;;;;5087604;27;20467;-77
2024/03/06 08:53:13;;;;;;;18.97;12.77;;;8.00;1.00;;;;;;5079024;28;21634;-76
2024/03/06 08:55:40;;;;;;;14.33;11.67;;;8.40;1.00;;;;;;5087044;28;20661;-76
2024/03/06 08:58:10;;;;;;;12.17;10.77;;;8.70;1.00;;;;;;5081622;27;20466;-76
2024/03/06 09:00:37;;;;;;;16.40;12.70;;;8.80;1.00;;;;;;5080125;28;20547;-76
2024/03/06 09:03:05;;;;;;;16.73;12.50;;;8.90;1.00;;;;;;5091213;28;20415;-78
2024/03/06 09:05:32;;;;;;;13.60;11.90;;;9.20;1.00;;;;;;5088219;28;20482;-77
2024/03/06 09:07:59;;;;;;;13.50;12.00;;;10.00;1.00;;;;;;5076633;28;20559;-79
2024/03/06 09:10:26;;;;;;;14.27;11.23;;;11.00;1.00;;;;;;5078556;28;20470;-77
2024/03/06 09:12:52;;;;;;;16.90;10.93;;;12.40;1.00;;;;;;5090605;28;20536;-77
2024/03/06 09:15:21;;;;;;;12.53;11.20;;;13.50;1.00;;;;;;5092803;27;20478;-78
2024/03/06 09:17:48;;;;;;;12.70;11.53;;;13.90;1.00;;;;;;5087321;28;20882;-78
2024/03/06 09:20:16;;;;;;;12.70;11.40;;;15.10;1.00;;;;;;5087935;28;20463;-78
2024/03/06 09:22:44;;;;;;;11.80;10.70;;;15.90;1.00;;;;;;5090339;28;20466;-77
2024/03/06 09:25:13;;;;;;;13.20;10.33;;;16.40;1.00;;;;;;5092959;28;20553;-79
2024/03/06 09:27:41;;;;;;;11.00;9.90;;;16.40;1.00;;;;;;5090522;28;20512;-79
2024/03/06 09:30:10;;;;;;;13.00;10.63;;;15.50;1.00;;;;;;5093879;28;20461;-78
2024/03/06 09:32:39;;;;;;;19.80;12.93;;;14.30;1.00;;;;;;5089949;28;20518;-77
2024/03/06 09:35:08;;;;;;;12.13;10.87;;;12.70;1.00;;;;;;5093221;28;20468;-77
2024/03/06 09:37:35;;;;;;;12.53;10.07;;;11.80;1.00;;;;;;5101488;27;20457;-78
2024/03/06 09:40:04;;;;;;;13.70;11.33;;;11.20;1.00;;;;;;5100381;27;20523;-77
2024/03/06 09:42:31;;;;;;;12.37;11.20;;;11.80;1.00;;;;;;5093402;28;20480;-77
2024/03/06 09:44:58;;;;;;;11.13;10.03;;;13.60;1.00;;;;;;5093832;27;21221;-75
2024/03/06 09:47:31;;;;;;;10.43;9.40;;;15.30;1.00;;;;;;5092579;28;20457;-76
2024/03/06 09:50:03;;;;;;;13.30;11.20;;;17.00;1.00;;;;;;5094509;27;20457;-76
2024/03/06 09:52:30;;;;;;;12.90;10.80;;;17.70;1.00;;;;;;5102532;27;20546;-79
2024/03/06 09:54:59;;;;;;;11.20;10.20;;;16.90;1.00;;;;;;5100587;27;20558;-78
2024/03/06 09:57:26;;;;;;;11.30;9.90;;;16.70;1.00;;;;;;5090770;28;20455;-78
2024/03/06 09:59:53;;;;;;;11.90;10.80;;;17.00;1.00;;;;;;5091593;28;20589;-76
2024/03/06 10:02:31;;;;;;;10.40;9.40;;;16.80;1.00;;;;;;5089570;28;20458;-78
2024/03/06 10:05:00;;;;;;;12.83;11.40;;;16.70;1.00;;;;;;5091207;28;20505;-79
2024/03/06 10:07:27;;;;;;;11.53;10.20;;;16.20;1.00;;;;;;5090426;28;20478;-78
2024/03/06 10:09:54;;;;;;;13.13;11.50;;;15.90;1.00;;;;;;5089858;28;20573;-77
2024/03/06 10:12:22;;;;;;;11.97;10.77;;;15.90;1.00;;;;;;5088855;28;20523;-77
2024/03/06 10:14:53;;;;;;;11.03;10.00;;;15.60;1.00;;;;;;5088188;28;20465;-76
2024/03/06 10:17:23;;;;;;;11.70;10.43;;;15.30;1.00;;;;;;5086169;28;20575;-77
2024/03/06 10:19:51;;;;;;;13.10;11.40;;;14.80;1.00;;;;;;5088500;27;20469;-74
2024/03/06 10:22:24;;;;;;;14.00;11.43;;;14.70;1.00;;;;;;5089599;28;20490;-78
2024/03/06 10:24:55;;;;;;;12.57;11.27;;;14.20;1.00;;;;;;5097262;28;20474;-78
2024/03/06 10:27:22;;;;;;;17.90;11.70;;;13.70;1.00;;;;;;5109805;27;20505;-78
2024/03/06 10:30:02;;;;;;;12.83;11.50;;;13.20;1.00;;;;;;5111504;27;20459;-81
2024/03/06 10:32:31;;;;;;;14.73;10.97;;;12.80;1.00;;;;;;5111728;27;20536;-78
2024/03/06 10:34:58;;;;;;;14.90;12.70;;;12.50;1.00;;;;;;5111841;27;20446;-78
2024/03/06 10:37:27;;;;;;;18.53;13.50;;;12.30;1.00;;;;;;5110484;27;20549;-79
2024/03/06 10:39:57;;;;;;;22.13;12.60;;;12.10;1.00;;;;;;5108072;27;20458;-79
2024/03/06 10:42:28;;;;;;;16.27;11.80;;;12.00;1.00;;;;;;5090387;27;20546;-77
2024/03/06 10:45:02;;;;;;;10.80;9.50;;;12.00;1.00;;;;;;5093272;27;20498;-77
2024/03/06 10:47:31;;;;;;;20.00;12.03;;;11.90;1.00;;;;;;5090152;28;20439;-76
2024/03/06 10:50:04;;;;;;;11.23;9.23;;;11.80;1.00;;;;;;5088412;28;20546;-77
2024/03/06 10:52:34;;;;;;;9.90;9.00;;;12.20;1.00;;;;;;5089598;28;20466;-79
2024/03/06 10:55:02;;;;;;;14.10;9.70;;;14.20;1.00;;;;;;5090288;28;20895;-78
2024/03/06 10:57:31;;;;;;;11.17;10.03;;;14.80;1.00;;;;;;5086538;28;20611;-76
2024/03/06 10:59:59;;;;;;;9.60;8.70;;;14.60;1.00;;;;;;5092627;27;20540;-77
2024/03/06 11:02:28;;;;;;;13.47;10.10;;;14.20;1.00;;;;;;5103081;27;20464;-76
2024/03/06 11:04:56;;;;;;;17.70;13.00;;;14.20;1.00;;;;;;5096371;27;20513;-75
2024/03/06 11:07:27;;;;;;;15.60;11.40;;;14.80;1.00;;;;;;5070346;28;20462;-76
2024/03/06 11:09:59;;;;;;;11.80;9.40;;;15.80;1.00;;;;;;5085645;27;20462;-77
2024/03/06 11:12:39;;;;;;;13.13;11.80;;;16.00;1.00;;;;;;5088864;27;20426;-75
2024/03/06 11:15:11;;;;;;;13.90;10.30;;;15.50;1.00;;;;;;5088896;28;20482;-75
2024/03/06 11:17:39;;;;;;;14.13;10.53;;;14.70;1.00;;;;;;5101061;27;20449;-77
2024/03/06 11:20:19;;;;;;;11.00;10.00;;;14.50;1.00;;;;;;5092055;27;20482;-75
2024/03/06 11:23:10;;;;;;;19.63;12.23;;;16.10;1.00;;;;;;5084622;28;20510;-76
2024/03/06 11:26:08;;;;;;;12.10;10.30;;;18.30;1.00;;;;;;5072092;28;21515;-77
2024/03/06 11:28:37;;;;;;;12.40;11.20;;;20.10;1.00;;;;;;5043006;28;20471;-78
2024/03/06 11:31:06;;;;;;;13.50;12.03;;;21.30;1.00;;;;;;5093951;27;20463;-77
2024/03/06 11:33:39;;;;;;;13.53;12.33;;;21.60;1.00;;;;;;5108555;27;20469;-76
2024/03/06 11:36:21;;;;;;;14.47;13.10;;;22.60;1.00;;;;;;5108949;27;20477;-78
2024/03/06 11:38:53;;;;;;;16.00;14.30;;;23.50;1.00;;;;;;5098858;27;20492;-76
2024/03/06 11:41:24;;;;;;;12.73;11.40;;;24.00;1.00;;;;;;5100004;27;20465;-77
2024/03/06 11:43:53;;;;;;;17.63;12.07;;;22.30;1.00;;;;;;5110166;27;20455;-77
2024/03/06 11:46:21;;;;;;;12.03;10.90;;;20.30;1.00;;;;;;5108041;27;20477;-77
2024/03/06 11:48:55;;;;;;;13.50;12.20;;;18.40;1.00;;;;;;5107776;27;20500;-76
2024/03/06 11:51:23;;;;;;;12.33;11.20;;;18.50;1.00;;;;;;5096547;27;20507;-78
2024/03/06 11:53:54;;;;;;;13.13;11.07;;;19.60;1.00;;;;;;5110976;27;20446;-77
2024/03/06 11:56:25;;;;;;;10.30;9.40;;;21.50;1.00;;;;;;5105294;27;20558;-76
2024/03/06 11:58:53;;;;;;;18.33;12.20;;;21.90;1.00;;;;;;5112230;27;20520;-76
2024/03/06 12:01:20;;;;;;;12.40;10.63;;;20.70;1.00;;;;;;5110282;27;20461;-79
2024/03/06 12:03:48;;;;;;;14.20;12.47;;;20.20;1.00;;;;;;5112886;27;20542;-78
2024/03/06 12:06:16;;;;;;;15.67;14.37;;;20.30;1.00;;;;;;5108159;27;20534;-76
2024/03/06 12:08:43;;;;;;;17.47;15.97;;;19.50;1.00;;;;;;5108041;27;20455;-77
2024/03/06 12:11:10;;;;;;;19.53;17.67;;;17.80;1.00;;;;;;5105460;27;20423;-80
2024/03/06 12:13:39;;;;;;;17.93;16.27;;;16.50;1.00;;;;;;5092312;28;20506;-78
2024/03/06 12:16:09;;;;;;;23.27;20.50;;;16.60;1.00;;;;;;5089430;28;20462;-78
2024/03/06 12:18:37;;;;;;;19.93;18.03;;;16.20;1.00;;;;;;5087448;28;20457;-77
2024/03/06 12:21:05;;;;;;;18.63;16.67;;;15.70;1.00;;;;;;5104761;27;20518;-77
2024/03/06 12:23:33;;;;;;;18.43;16.67;;;15.20;1.00;;;;;;5109726;27;20477;-78
2024/03/06 12:26:08;;;;;;;19.90;18.10;;;14.80;1.00;;;;;;5091213;28;20485;-78
2024/03/06 12:28:36;;;;;;;19.60;15.67;;;15.00;1.00;;;;;;5109024;27;20858;-79
2024/03/06 12:31:05;;;;;;;15.37;14.00;;;16.80;1.00;;;;;;5112920;27;20471;-80
2024/03/06 12:33:33;;;;;;;14.87;13.47;;;19.70;1.00;;;;;;5108068;27;20494;-82
2024/03/06 12:36:06;;;;;;;13.47;12.27;;;20.90;1.00;;;;;;5091960;28;20566;-79
2024/03/06 12:38:34;;;;;;;14.20;13.00;;;20.50;1.00;;;;;;5090670;28;20512;-81
2024/03/06 12:41:01;;;;;;;17.20;13.70;;;19.90;1.00;;;;;;5091198;28;20440;-81
2024/03/06 12:43:29;;;;;;;16.10;14.70;;;19.30;1.00;;;;;;5091243;28;20527;-78
2024/03/06 12:45:57;;;;;;;15.97;14.40;;;18.60;1.00;;;;;;5091172;28;20497;-82
2024/03/06 12:48:29;;;;;;;20.93;14.90;;;17.90;1.00;;;;;;5089008;28;20530;-81
2024/03/06 12:51:04;;;;;;;15.33;14.00;;;17.00;1.00;;;;;;5091460;28;21463;-80